Zorg en Hoop Airport

Jump to: basic info | weather | comments

Related pages: nearby airports | nearby navaids | notams | map

Basic information (top)

Codes: ORG SMZO
Location: lon 5.811080, lat -55.190701, elev 10 ft / 3 m msl
Status: small_airport

Weather (top)

Current conditions (rec'd 2015/04/27 18:00Z):

SMZO 271800Z 06008KT 9999 SCT035 32/22 Q1011 NOSIG

Airport forecast (rec'd 2015/04/10 06:30Z):

TAF COR TAF COR SMZO 100400Z 1006/1106 1006/1106 04003KT 04003KT 9999 FEW012 SCT035 TX32/1018Z TN24/1010Z 
      BECMG 1011/1013 05012KT FEW015TCU BKN020 
      TEMPO 1015/1021 5000 SHRA FEW018CB SCT020 
      BECMG 1101/1103 04003KT CAVOK

Latest comments (top)

KLM flights from Caracas - Paramaribo - Dakar - Madrid - fra: I would like to know if this airport ... [read]

More... (top)

See also NOTAMs and nearby airports and navaids, or visit the Zorg en Hoop Airport page at the main OurAirports website..